Time;durP1;ratioP1;P1;durP2;ratioP2;P2;SDS_P1;SDS_P2;PMS_P1;PMS_P2;Temp;Humidity;BMP_temperature;BMP_pressure;BME280_temperature;BME280_humidity;BME280_pressure;Samples;Min_cycle;Max_cycle;Signal;HPM_P1;HPM_P2
2022/06/18 00:01:02;;;;;;;41.15;38.38;;;;;;;20.53;100.00;101183.59;5092979;28;20078;-80
2022/06/18 00:03:31;;;;;;;38.97;36.08;;;;;;;21.55;100.00;101177.81;5091828;28;20040;-82
2022/06/18 00:06:00;;;;;;;38.75;35.95;;;;;;;20.08;100.00;101182.19;5091649;28;20044;-79
2022/06/18 00:08:31;;;;;;;37.45;34.60;;;;;;;20.48;100.00;101176.25;5082485;28;20067;-81
2022/06/18 00:13:49;;;;;;;31.67;29.50;;;;;;;20.78;100.00;101174.81;5092238;28;20043;-80
2022/06/18 00:16:21;;;;;;;40.45;37.75;;;;;;;19.95;100.00;101174.53;5096196;28;20044;-79
2022/06/18 00:18:49;;;;;;;41.20;38.60;;;;;;;20.05;100.00;101183.50;5086997;28;20132;-80
2022/06/18 00:21:25;;;;;;;38.38;36.13;;;;;;;20.04;100.00;101181.09;5096258;28;20124;-80
2022/06/18 00:23:57;;;;;;;37.63;34.88;;;;;;;19.88;100.00;101196.31;5093641;28;20060;-79
2022/06/18 00:26:40;;;;;;;;;;;;;;;;;;;;;
2022/06/18 00:29:19;;;;;;;45.35;42.15;;;;;;;19.65;100.00;101200.13;5098552;28;20290;-81
2022/06/18 00:31:49;;;;;;;45.97;42.67;;;;;;;19.36;100.00;101208.41;5092690;28;20052;-81
2022/06/18 00:34:22;;;;;;;47.25;43.95;;;;;;;19.40;100.00;101214.94;5090439;28;20109;-81
2022/06/18 00:36:56;;;;;;;45.08;41.75;;;;;;;19.84;100.00;101214.88;5090859;28;20052;-81
2022/06/18 00:39:25;;;;;;;43.38;40.38;;;;;;;19.77;100.00;101216.97;5087468;28;20044;-81
2022/06/18 00:41:55;;;;;;;48.60;45.17;;;;;;;19.23;100.00;101217.69;5094916;28;20048;-80
2022/06/18 00:44:35;;;;;;;43.13;40.03;;;;;;;19.33;100.00;101219.69;5094797;28;20051;-78
2022/06/18 00:47:12;;;;;;;45.65;42.22;;;;;;;19.16;100.00;101218.97;5093478;28;20414;-80
2022/06/18 00:49:49;;;;;;;42.17;38.90;;;;;;;19.18;100.00;101223.03;5095354;28;20047;-79
2022/06/18 00:52:25;;;;;;;44.55;41.42;;;;;;;19.74;100.00;101219.34;5095245;28;20039;-78
2022/06/18 00:55:02;;;;;;;39.90;36.97;;;;;;;19.12;100.00;101213.28;5090676;28;20448;-80
2022/06/18 00:57:43;;;;;;;50.78;47.42;;;;;;;19.15;100.00;101217.31;5092949;28;20465;-80
2022/06/18 01:00:20;;;;;;;42.55;39.28;;;;;;;19.23;100.00;101223.09;5095876;28;20059;-80
2022/06/18 01:02:49;;;;;;;46.33;42.58;;;;;;;19.32;100.00;101228.03;5091052;28;20054;-81
2022/06/18 01:05:28;;;;;;;39.33;36.03;;;;;;;19.15;100.00;101225.41;5084849;28;20056;-81
2022/06/18 01:08:04;;;;;;;46.30;42.72;;;;;;;19.02;100.00;101229.28;5084331;28;20044;-81
2022/06/18 01:10:38;;;;;;;44.22;40.85;;;;;;;19.09;100.00;101221.03;5091984;28;20070;-82
2022/06/18 01:13:23;;;;;;;47.60;44.05;;;;;;;19.20;100.00;101217.41;5095949;28;20055;-82
2022/06/18 01:15:56;;;;;;;43.90;40.72;;;;;;;19.13;100.00;101214.91;5082084;28;20177;-83
2022/06/18 01:18:28;;;;;;;47.53;44.00;;;;;;;18.91;100.00;101214.91;5092150;28;20109;-80
2022/06/18 01:21:11;;;;;;;44.78;41.38;;;;;;;18.93;100.00;101214.63;5091714;28;20044;-81
2022/06/18 01:23:53;;;;;;;47.83;43.97;;;;;;;19.00;100.00;101220.63;5090120;28;20123;-81
2022/06/18 01:26:23;;;;;;;47.05;43.65;;;;;;;18.85;100.00;101215.06;5097027;28;20397;-82
2022/06/18 01:28:55;;;;;;;45.85;42.15;;;;;;;19.09;100.00;101208.41;5093720;28;20058;-80
2022/06/18 01:31:24;;;;;;;46.63;42.38;;;;;;;19.17;100.00;101207.94;5087845;28;20047;-81
2022/06/18 01:33:51;;;;;;;48.45;44.55;;;;;;;18.96;100.00;101201.47;5094280;28;20044;-80
2022/06/18 01:36:22;;;;;;;57.92;53.78;;;;;;;18.75;100.00;101199.59;5095946;28;20048;-80
2022/06/18 01:38:53;;;;;;;43.97;40.08;;;;;;;18.83;100.00;101207.25;5089704;28;20101;-82
2022/06/18 01:44:34;;;;;;;42.88;39.25;;;;;;;18.91;100.00;101222.97;5088598;28;20118;-80
2022/06/18 01:47:08;;;;;;;43.20;40.05;;;;;;;18.78;100.00;101217.94;5090059;28;20044;-79
2022/06/18 01:49:46;;;;;;;48.50;44.55;;;;;;;18.46;100.00;101206.97;5088182;28;20127;-80
2022/06/18 01:52:17;;;;;;;55.13;51.33;;;;;;;18.89;100.00;101208.13;5087563;28;20488;-82
2022/06/18 01:54:51;;;;;;;48.25;44.58;;;;;;;18.83;100.00;101195.69;5094088;28;20059;-80
2022/06/18 01:57:26;;;;;;;55.03;51.13;;;;;;;18.90;100.00;101197.09;5095583;28;20048;-81
2022/06/18 01:59:57;;;;;;;46.15;42.20;;;;;;;18.84;100.00;101205.38;5093620;28;20044;-80
2022/06/18 02:02:25;;;;;;;46.85;42.97;;;;;;;18.61;100.00;101217.94;5202355;22;20052;-81
2022/06/18 02:04:55;;;;;;;49.10;44.90;;;;;;;18.33;100.00;101226.13;5074382;28;20385;-83
2022/06/18 02:07:26;;;;;;;44.60;40.90;;;;;;;18.09;100.00;101237.00;5069076;28;20059;-82
2022/06/18 02:09:59;;;;;;;52.30;48.47;;;;;;;18.27;100.00;101250.22;5073598;28;20045;-82
2022/06/18 02:12:32;;;;;;;53.50;49.17;;;;;;;18.39;100.00;101260.91;5072499;28;20127;-81
2022/06/18 02:15:03;;;;;;;50.47;46.38;;;;;;;18.04;100.00;101261.94;5070950;28;20044;-80
2022/06/18 02:17:31;;;;;;;54.10;50.03;;;;;;;18.29;100.00;101258.06;5074244;28;20056;-84
2022/06/18 02:20:02;;;;;;;47.63;43.78;;;;;;;18.02;100.00;101265.94;5062601;28;20095;-81
2022/06/18 02:22:36;;;;;;;50.90;46.45;;;;;;;18.21;100.00;101264.63;5069004;28;20401;-80
2022/06/18 02:25:03;;;;;;;44.08;40.20;;;;;;;18.34;100.00;101270.78;5070468;28;20047;-82
2022/06/18 02:27:32;;;;;;;46.47;42.28;;;;;;;18.49;100.00;101266.47;5066967;28;20500;-82
2022/06/18 02:30:00;;;;;;;46.63;41.92;;;;;;;18.34;100.00;101274.28;5070604;28;20045;-82
2022/06/18 02:32:35;;;;;;;40.67;36.88;;;;;;;18.23;100.00;101273.28;5067374;28;20055;-85
2022/06/18 02:35:12;;;;;;;49.35;45.83;;;;;;;18.36;100.00;101271.34;5070394;28;20550;-82
2022/06/18 02:37:39;;;;;;;42.70;38.67;;;;;;;18.46;100.00;101279.59;5071651;28;20041;-82
2022/06/18 02:40:17;;;;;;;76.75;71.68;;;;;;;18.40;100.00;101286.75;5066495;28;20052;-82
2022/06/18 02:42:47;;;;;;;49.33;44.83;;;;;;;18.06;100.00;101296.63;5069441;28;20041;-82
2022/06/18 02:45:18;;;;;;;51.60;47.30;;;;;;;18.21;100.00;101301.47;5071294;28;20106;-83
2022/06/18 02:47:46;;;;;;;47.40;43.50;;;;;;;18.37;100.00;101318.69;5073817;28;20053;-82
2022/06/18 02:50:26;;;;;;;45.30;41.28;;;;;;;18.36;100.00;101314.34;5073838;28;20045;-82
2022/06/18 02:52:58;;;;;;;42.08;38.47;;;;;;;18.52;100.00;101335.91;5073125;28;20459;-81
2022/06/18 02:55:28;;;;;;;43.85;40.22;;;;;;;18.10;100.00;101331.94;5072580;28;20056;-81
2022/06/18 02:58:01;;;;;;;48.63;44.67;;;;;;;18.07;100.00;101330.53;5065457;28;20417;-81
2022/06/18 03:00:31;;;;;;;49.08;45.17;;;;;;;18.30;100.00;101335.78;5064861;28;20068;-82
2022/06/18 03:03:00;;;;;;;48.70;44.78;;;;;;;18.62;100.00;101331.75;5067913;28;20064;-81
2022/06/18 03:05:29;;;;;;;63.95;59.30;;;;;;;18.75;100.00;101336.81;5069192;28;20393;-83
2022/06/18 03:07:56;;;;;;;58.45;53.78;;;;;;;18.48;100.00;101334.75;5073889;28;20059;-83
2022/06/18 03:13:08;;;;;;;71.13;65.97;;;;;;;18.47;100.00;101337.69;5071909;28;20122;-82
2022/06/18 03:15:35;;;;;;;70.63;65.05;;;;;;;18.53;100.00;101328.66;5072889;28;20468;-81
2022/06/18 03:18:03;;;;;;;71.72;65.35;;;;;;;18.54;100.00;101320.31;5070008;28;20056;-82
2022/06/18 03:20:39;;;;;;;68.40;62.85;;;;;;;18.36;100.00;101323.25;5073421;28;20044;-84
2022/06/18 03:23:06;;;;;;;65.93;60.58;;;;;;;18.16;100.00;101323.72;5071158;28;20053;-82
2022/06/18 03:25:39;;;;;;;78.47;71.97;;;;;;;18.40;100.00;101326.28;5069028;28;20365;-85
2022/06/18 03:28:18;;;;;;;73.00;66.73;;;;;;;18.64;100.00;101327.75;5073644;28;20059;-84
2022/06/18 03:30:46;;;;;;;69.88;64.28;;;;;;;18.60;100.00;101334.66;5074168;28;20044;-83
2022/06/18 03:33:13;;;;;;;65.75;60.30;;;;;;;18.50;100.00;101338.00;5072534;28;20075;-82
2022/06/18 03:35:43;;;;;;;69.03;63.53;;;;;;;18.67;100.00;101329.97;5071523;28;20060;-80
2022/06/18 03:38:17;;;;;;;62.97;57.75;;;;;;;18.61;100.00;101340.84;5072882;28;20149;-80
2022/06/18 03:40:51;;;;;;;60.42;55.33;;;;;;;18.82;100.00;101339.34;5073130;28;20059;-83
2022/06/18 03:43:20;;;;;;;66.45;61.40;;;;;;;18.36;100.00;101342.06;5065003;28;20048;-84
2022/06/18 03:45:52;;;;;;;63.80;58.78;;;;;;;18.58;100.00;101344.03;5072025;28;20053;-85
2022/06/18 03:48:24;;;;;;;62.83;57.97;;;;;;;18.60;100.00;101347.31;5071412;28;20052;-83
2022/06/18 03:50:51;;;;;;;69.27;63.97;;;;;;;18.63;100.00;101333.38;5070296;28;20044;-84
2022/06/18 03:53:20;;;;;;;58.03;53.05;;;;;;;18.44;100.00;101354.31;5066953;28;20313;-81
2022/06/18 03:55:47;;;;;;;72.65;67.15;;;;;;;18.53;100.00;101348.28;5072861;28;20063;-83
2022/06/18 03:58:15;;;;;;;69.35;63.58;;;;;;;18.56;100.00;101357.75;5070654;28;20055;-83
2022/06/18 04:00:43;;;;;;;73.95;68.28;;;;;;;18.77;100.00;101356.22;5065938;28;20044;-81
2022/06/18 04:03:11;;;;;;;60.55;56.40;;;;;;;18.70;100.00;101355.56;5068265;28;20390;-84
2022/06/18 04:05:41;;;;;;;51.50;47.92;;;;;;;18.69;100.00;101360.09;5067728;28;20200;-80
2022/06/18 04:08:08;;;;;;;51.60;47.85;;;;;;;18.62;100.00;101364.84;5070960;28;20053;-81
2022/06/18 04:10:35;;;;;;;54.10;49.90;;;;;;;18.87;100.00;101359.06;5072913;28;20132;-81
2022/06/18 04:13:07;;;;;;;46.28;41.88;;;;;;;18.74;100.00;101368.28;5068293;28;20059;-85
2022/06/18 04:15:34;;;;;;;45.67;42.67;;;;;;;18.90;100.00;101363.97;5073055;28;20052;-83
2022/06/18 04:18:06;;;;;;;52.95;49.03;;;;;;;18.76;100.00;101362.69;5073969;28;20044;-83
2022/06/18 04:20:36;;;;;;;45.30;42.25;;;;;;;18.90;100.00;101361.28;5067087;28;20049;-83
2022/06/18 04:23:05;;;;;;;45.35;42.08;;;;;;;18.63;100.00;101366.47;5060755;28;20060;-83
2022/06/18 04:25:39;;;;;;;41.53;38.65;;;;;;;18.60;100.00;101375.03;5076756;28;20405;-81
2022/06/18 04:28:12;;;;;;;46.83;43.40;;;;;;;18.85;100.00;101379.22;5072503;28;20564;-82
2022/06/18 04:30:39;;;;;;;50.28;46.88;;;;;;;18.81;100.00;101386.16;5072568;28;20080;-80
2022/06/18 04:33:08;;;;;;;44.47;41.67;;;;;;;18.70;100.00;101385.16;5069457;28;20041;-81
2022/06/18 04:35:36;;;;;;;46.47;42.75;;;;;;;18.81;100.00;101386.16;5076268;28;20106;-80
2022/06/18 04:38:07;;;;;;;44.92;41.80;;;;;;;19.17;100.00;101387.53;5075979;28;20051;-82
2022/06/18 04:40:35;;;;;;;41.80;38.67;;;;;;;18.79;100.00;101396.34;5076586;28;20053;-86
2022/06/18 04:43:06;;;;;;;39.78;37.08;;;;;;;18.67;100.00;101396.38;5061657;28;20045;-81
2022/06/18 04:45:36;;;;;;;37.03;34.60;;;;;;;18.48;100.00;101399.28;5060286;28;20052;-81
2022/06/18 04:48:05;;;;;;;35.67;33.28;;;;;;;18.58;100.00;101400.53;5068969;28;20455;-82
2022/06/18 04:50:36;;;;;;;40.15;37.33;;;;;;;18.42;100.00;101407.50;5073389;28;20044;-81
2022/06/18 04:53:04;;;;;;;40.55;37.95;;;;;;;18.65;100.00;101404.72;5076285;28;20052;-84
2022/06/18 04:55:33;;;;;;;38.15;35.65;;;;;;;18.41;100.00;101412.06;5075420;28;20488;-81
2022/06/18 04:58:01;;;;;;;39.90;37.13;;;;;;;18.57;100.00;101410.47;5065961;28;20102;-84
2022/06/18 05:00:29;;;;;;;36.55;33.92;;;;;;;18.73;100.00;101411.59;5076067;28;20079;-81
2022/06/18 05:02:56;;;;;;;38.25;35.58;;;;;;;18.49;100.00;101421.66;5069612;28;20126;-81
2022/06/18 05:05:26;;;;;;;34.45;31.48;;;;;;;18.41;100.00;101416.66;5073186;28;20049;-83
2022/06/18 05:08:12;;;;;;;36.45;34.10;;;;;;;18.56;100.00;101416.09;5069217;28;20052;-83
2022/06/18 05:10:40;;;;;;;35.70;33.42;;;;;;;18.53;100.00;101403.97;5072614;28;20479;-80
2022/06/18 05:13:07;;;;;;;37.65;35.22;;;;;;;18.49;100.00;101419.75;5068510;28;20110;-84
2022/06/18 05:15:36;;;;;;;36.83;34.45;;;;;;;18.58;100.00;101413.97;5067832;28;20120;-83
2022/06/18 05:18:04;;;;;;;39.83;37.13;;;;;;;18.63;100.00;101419.44;5067951;28;20060;-82
2022/06/18 05:20:38;;;;;;;43.22;40.55;;;;;;;18.85;100.00;101417.72;5070351;28;20059;-84
2022/06/18 05:23:05;;;;;;;45.33;42.38;;;;;;;19.10;100.00;101424.59;5064409;28;20193;-81
2022/06/18 05:25:39;;;;;;;50.42;47.33;;;;;;;18.85;100.00;101427.66;5073918;28;20130;-80
2022/06/18 05:28:06;;;;;;;39.90;37.50;;;;;;;18.81;100.00;101438.09;5069915;28;20048;-84
2022/06/18 05:30:33;;;;;;;38.92;36.22;;;;;;;19.40;100.00;101443.06;5072773;28;20051;-81
2022/06/18 05:33:01;;;;;;;39.22;36.53;;;;;;;19.36;100.00;101437.34;5074992;28;20128;-81
2022/06/18 05:35:28;;;;;;;38.72;35.60;;;;;;;19.65;100.00;101440.75;5074792;28;20102;-83
2022/06/18 05:37:55;;;;;;;36.03;33.53;;;;;;;19.39;100.00;101430.66;5075473;28;20507;-81
2022/06/18 05:40:22;;;;;;;39.50;36.08;;;;;;;19.46;100.00;101434.00;5074836;28;20044;-83
2022/06/18 05:42:53;;;;;;;37.58;35.17;;;;;;;19.78;100.00;101438.78;5074801;28;20052;-84
2022/06/18 05:45:20;;;;;;;36.03;33.63;;;;;;;19.74;100.00;101446.53;5071210;28;20048;-82
2022/06/18 05:47:50;;;;;;;39.20;36.08;;;;;;;19.88;100.00;101444.31;5073697;28;20082;-85
2022/06/18 05:50:19;;;;;;;40.03;37.10;;;;;;;19.91;100.00;101441.09;5072673;28;20045;-83
2022/06/18 05:52:46;;;;;;;41.78;39.08;;;;;;;19.95;100.00;101444.13;5070959;28;20048;-82
2022/06/18 05:55:20;;;;;;;35.40;33.10;;;;;;;19.71;100.00;101447.03;5072818;28;20082;-83
2022/06/18 05:57:54;;;;;;;33.85;31.70;;;;;;;20.01;100.00;101449.31;5073718;28;20135;-81
2022/06/18 06:00:26;;;;;;;37.20;34.60;;;;;;;20.39;100.00;101442.19;5061539;28;20044;-82
2022/06/18 06:02:53;;;;;;;35.53;33.28;;;;;;;20.61;100.00;101438.66;5061419;28;20053;-83
2022/06/18 06:05:29;;;;;;;33.95;31.90;;;;;;;20.72;100.00;101449.28;5072567;28;20543;-83
2022/06/18 06:07:58;;;;;;;30.17;28.55;;;;;;;20.41;100.00;101456.22;5071422;28;20048;-83
2022/06/18 06:13:13;;;;;;;31.80;30.00;;;;;;;20.39;100.00;101444.88;5070884;28;20047;-83
2022/06/18 06:15:42;;;;;;;33.45;31.45;;;;;;;20.68;100.00;101440.06;5073761;28;20499;-85
2022/06/18 06:18:11;;;;;;;29.02;27.52;;;;;;;20.76;100.00;101455.00;5073702;28;20048;-82
2022/06/18 06:20:48;;;;;;;29.40;27.90;;;;;;;20.51;100.00;101450.94;5074174;28;20045;-83
2022/06/18 06:23:15;;;;;;;29.27;27.77;;;;;;;20.53;100.00;101448.03;5063326;28;20562;-84
2022/06/18 06:25:48;;;;;;;28.50;26.88;;;;;;;20.98;100.00;101442.22;5073487;28;20044;-83
2022/06/18 06:28:22;;;;;;;30.00;28.30;;;;;;;20.58;100.00;101456.19;5070518;28;20051;-86
2022/06/18 06:30:56;;;;;;;30.88;29.08;;;;;;;20.64;100.00;101449.75;5071894;28;20118;-84
2022/06/18 06:33:24;;;;;;;31.90;29.77;;;;;;;20.65;100.00;101456.78;5054706;28;20044;-84
2022/06/18 06:35:52;;;;;;;30.92;29.13;;;;;;;20.95;100.00;101458.94;5067380;28;20488;-85
2022/06/18 06:38:19;;;;;;;28.67;26.90;;;;;;;21.41;100.00;101448.50;5073241;28;20122;-84
2022/06/18 06:40:47;;;;;;;27.65;25.80;;;;;;;21.18;100.00;101456.94;5072976;28;20058;-86
2022/06/18 06:43:15;;;;;;;27.17;25.48;;;;;;;21.31;100.00;101447.59;5073772;28;20044;-84
2022/06/18 06:45:44;;;;;;;28.48;26.67;;;;;;;21.68;100.00;101461.09;5073430;28;20052;-85
2022/06/18 06:48:11;;;;;;;25.77;24.15;;;;;;;21.38;100.00;101446.31;5073906;28;20075;-84
2022/06/18 06:50:39;;;;;;;26.20;24.67;;;;;;;22.13;100.00;101457.78;5072950;28;20053;-85
2022/06/18 06:53:06;;;;;;;26.13;24.40;;;;;;;21.55;100.00;101443.47;5073514;28;20048;-81
2022/06/18 06:58:21;;;;;;;25.05;23.48;;;;;;;21.80;100.00;101455.47;5071784;28;20043;-84
2022/06/18 07:00:52;;;;;;;24.95;23.55;;;;;;;21.80;100.00;101453.59;5073073;28;20113;-83
2022/06/18 07:03:21;;;;;;;26.48;24.98;;;;;;;21.82;100.00;101456.03;5073060;28;20117;-85
2022/06/18 07:05:48;;;;;;;25.77;24.30;;;;;;;21.56;100.00;101452.38;5072777;28;20378;-83
2022/06/18 07:08:15;;;;;;;25.60;24.02;;;;;;;21.48;100.00;101448.25;5073510;28;20057;-84
2022/06/18 07:10:43;;;;;;;25.80;24.20;;;;;;;21.69;100.00;101454.59;5074176;28;20055;-82
2022/06/18 07:13:10;;;;;;;25.90;24.20;;;;;;;21.46;100.00;101453.13;5074761;28;20048;-85
2022/06/18 07:15:38;;;;;;;25.45;23.88;;;;;;;21.70;100.00;101456.25;5070895;28;20871;-83
2022/06/18 07:18:14;;;;;;;26.10;24.50;;;;;;;21.77;100.00;101456.00;5071768;28;20041;-83
2022/06/18 07:20:42;;;;;;;25.70;24.15;;;;;;;21.86;100.00;101452.53;5055138;28;20485;-84
2022/06/18 07:23:15;;;;;;;25.00;23.50;;;;;;;21.66;100.00;101449.72;5064751;28;20056;-85
2022/06/18 07:25:42;;;;;;;26.10;24.55;;;;;;;21.60;100.00;101448.88;5058574;28;20393;-83
2022/06/18 07:28:11;;;;;;;26.10;24.60;;;;;;;22.60;100.00;101445.19;5073647;28;20053;-84
2022/06/18 07:30:48;;;;;;;26.35;24.85;;;;;;;22.20;100.00;101446.72;5073625;28;20102;-84
2022/06/18 07:33:22;;;;;;;26.80;25.00;;;;;;;22.69;100.00;101451.69;5066614;28;20063;-84
2022/06/18 07:35:49;;;;;;;26.00;24.40;;;;;;;22.49;100.00;101462.50;5072599;28;20126;-86
2022/06/18 07:38:17;;;;;;;25.23;23.83;;;;;;;22.90;100.00;101465.25;5073956;28;20049;-84
2022/06/18 07:40:47;;;;;;;25.98;24.48;;;;;;;23.19;100.00;101465.56;5065342;28;20061;-84
2022/06/18 07:43:21;;;;;;;25.00;23.42;;;;;;;23.22;100.00;101470.44;5058547;28;20056;-87
2022/06/18 07:45:51;;;;;;;25.45;23.65;;;;;;;23.23;100.00;101464.72;5064262;28;20045;-83
2022/06/18 07:48:26;;;;;;;25.77;24.08;;;;;;;22.96;100.00;101470.44;5072670;28;20048;-83
2022/06/18 07:50:54;;;;;;;24.80;23.30;;;;;;;22.71;100.00;101473.91;5077100;28;20106;-82
2022/06/18 07:53:26;;;;;;;25.60;23.60;;;;;;;23.30;100.00;101468.00;5076129;28;20113;-83
2022/06/18 07:55:56;;;;;;;26.08;24.45;;;;;;;23.23;100.00;101472.06;5076070;28;20056;-82
2022/06/18 07:58:26;;;;;;;24.75;23.05;;;;;;;23.60;100.00;101479.88;5075374;28;20044;-84
2022/06/18 08:00:54;;;;;;;24.20;22.80;;;;;;;23.57;100.00;101463.31;5073347;28;20103;-82
2022/06/18 08:03:21;;;;;;;24.88;23.30;;;;;;;23.94;100.00;101471.13;5067375;28;20127;-84
2022/06/18 08:05:50;;;;;;;25.20;23.60;;;;;;;23.77;100.00;101466.81;5076041;28;20048;-85
2022/06/18 08:08:19;;;;;;;25.45;24.02;;;;;;;24.00;100.00;101459.97;5066568;28;20413;-83
2022/06/18 08:10:53;;;;;;;25.52;23.75;;;;;;;24.38;100.00;101473.88;5076859;28;20048;-82
2022/06/18 08:13:21;;;;;;;26.45;24.92;;;;;;;24.09;100.00;101464.81;5065246;28;20492;-82
2022/06/18 08:15:48;;;;;;;23.75;22.25;;;;;;;23.97;100.00;101467.84;5071408;28;20491;-84
2022/06/18 08:18:16;;;;;;;25.45;23.85;;;;;;;24.03;100.00;101471.34;5070127;28;20110;-81
2022/06/18 08:20:45;;;;;;;25.00;23.45;;;;;;;24.17;100.00;101464.22;5070895;28;20037;-84
2022/06/18 08:23:23;;;;;;;25.30;23.63;;;;;;;24.23;100.00;101461.19;5076573;28;20055;-84
2022/06/18 08:25:51;;;;;;;24.70;22.98;;;;;;;24.47;100.00;101465.97;5072852;28;20060;-81
2022/06/18 08:28:18;;;;;;;24.42;22.52;;;;;;;24.11;100.00;101468.84;5076607;28;20086;-81
2022/06/18 08:30:47;;;;;;;23.60;22.10;;;;;;;24.44;100.00;101467.34;5078358;28;20063;-84
2022/06/18 08:33:20;;;;;;;24.27;22.80;;;;;;;24.65;100.00;101459.88;5076755;28;20053;-82
2022/06/18 08:35:51;;;;;;;25.95;24.27;;;;;;;24.58;100.00;101462.09;5072113;28;20037;-82
2022/06/18 08:38:20;;;;;;;27.17;25.33;;;;;;;24.66;100.00;101466.94;5077059;28;20139;-85
2022/06/18 08:41:07;;;;;;;24.67;23.08;;;;;;;24.44;100.00;101471.97;5070354;28;20044;-84
2022/06/18 08:44:19;;;;;;;33.30;25.85;;;;;;;24.43;100.00;101460.31;5072931;28;20133;-84
2022/06/18 08:46:57;;;;;;;24.27;22.90;;;;;;;24.27;100.00;101468.78;5067145;28;20056;-84
2022/06/18 08:49:38;;;;;;;25.85;24.35;;;;;;;24.60;100.00;101456.38;5073497;28;20056;-82
2022/06/18 08:52:24;;;;;;;25.83;24.50;;;;;;;24.42;100.00;101455.97;5074954;28;20393;-82
2022/06/18 08:55:00;;;;;;;24.80;23.30;;;;;;;24.83;100.00;101452.16;5076783;28;20052;-83
2022/06/18 08:57:40;;;;;;;26.13;24.50;;;;;;;25.27;100.00;101452.06;5075479;28;20044;-81
2022/06/18 09:00:15;;;;;;;24.38;22.85;;;;;;;25.25;100.00;101448.81;5073834;28;20040;-81
2022/06/18 09:02:52;;;;;;;24.13;22.75;;;;;;;25.04;100.00;101450.88;5061958;28;20064;-83
2022/06/18 09:05:37;;;;;;;26.45;24.75;;;;;;;24.68;100.00;101448.44;5070769;28;20367;-83
2022/06/18 09:08:34;;;;;;;26.38;24.88;;;;;;;25.17;100.00;101459.50;5072725;28;20139;-81
2022/06/18 09:11:24;;;;;;;26.15;24.33;;;;;;;24.95;100.00;101444.44;5075819;28;20053;-84
2022/06/18 09:13:57;;;;;;;24.65;22.98;;;;;;;24.83;100.00;101444.81;5067628;28;20049;-82
2022/06/18 09:16:31;;;;;;;25.52;22.85;;;;;;;24.84;100.00;101449.16;5072640;28;20064;-83
2022/06/18 09:19:06;;;;;;;24.75;23.15;;;;;;;25.36;100.00;101452.25;5064769;28;20063;-84
2022/06/18 09:21:39;;;;;;;24.38;22.88;;;;;;;25.63;100.00;101448.13;5073374;28;20499;-81
2022/06/18 09:24:17;;;;;;;24.77;23.27;;;;;;;25.53;100.00;101436.28;5069923;28;20041;-81
2022/06/18 09:26:53;;;;;;;24.80;22.77;;;;;;;25.71;100.00;101444.78;5072080;28;20041;-83
2022/06/18 09:29:30;;;;;;;25.17;23.27;;;;;;;25.51;100.00;101438.50;5074052;28;20040;-83
2022/06/18 09:32:03;;;;;;;24.95;23.13;;;;;;;25.20;100.00;101453.50;5070359;28;20056;-83
2022/06/18 09:34:38;;;;;;;26.38;24.63;;;;;;;25.45;100.00;101453.25;5075004;28;20049;-84
2022/06/18 09:37:17;;;;;;;24.77;23.27;;;;;;;25.51;100.00;101438.50;5072787;28;20048;-82
2022/06/18 09:39:58;;;;;;;24.58;23.08;;;;;;;25.95;100.00;101436.63;5069007;28;20045;-84
2022/06/18 09:42:34;;;;;;;25.58;24.08;;;;;;;25.85;100.00;101434.88;5067974;28;20052;-80
2022/06/18 09:45:13;;;;;;;25.13;23.63;;;;;;;26.09;100.00;101432.09;5076035;28;20048;-81
2022/06/18 09:47:41;;;;;;;27.35;25.20;;;;;;;26.07;100.00;101428.03;5080650;28;20044;-82
2022/06/18 09:50:20;;;;;;;25.75;24.27;;;;;;;26.30;100.00;101429.91;5075311;28;20056;-81
2022/06/18 09:52:55;;;;;;;26.02;24.48;;;;;;;25.57;100.00;101428.38;5074642;28;20495;-83
2022/06/18 09:55:29;;;;;;;26.05;24.42;;;;;;;25.87;100.00;101415.50;5081174;28;20048;-81
2022/06/18 09:58:09;;;;;;;25.27;23.77;;;;;;;25.99;100.00;101421.34;5073752;28;20041;-82
2022/06/18 10:00:41;;;;;;;25.25;23.75;;;;;;;26.13;100.00;101415.97;5073581;28;20100;-82
2022/06/18 10:06:52;;;;;;;24.50;22.80;;;;;;;26.60;100.00;101419.69;5065794;28;20094;-83
2022/06/18 10:09:02;;;;;;;24.40;22.80;;;;;;;26.53;100.00;101420.03;5075909;28;20117;-83
2022/06/18 10:11:35;;;;;;;24.95;23.55;;;;;;;26.52;100.00;101423.06;5075289;28;20036;-85
2022/06/18 10:14:11;;;;;;;26.23;24.42;;;;;;;26.52;100.00;101421.16;5059908;28;20123;-82
2022/06/18 10:16:53;;;;;;;26.00;24.52;;;;;;;26.70;100.00;101409.41;5064414;28;20132;-80
2022/06/18 10:19:30;;;;;;;27.05;25.50;;;;;;;27.32;100.00;101408.34;5068519;28;20048;-82
2022/06/18 10:22:02;;;;;;;27.23;25.40;;;;;;;26.86;99.24;101412.69;5073934;28;20051;-80
2022/06/18 10:24:43;;;;;;;26.13;24.45;;;;;;;27.21;93.38;101407.75;5068089;28;20075;-80
2022/06/18 10:27:20;;;;;;;26.13;24.63;;;;;;;27.14;100.00;101410.88;5070494;28;20513;-84
2022/06/18 10:29:57;;;;;;;25.73;24.27;;;;;;;27.12;98.27;101404.06;5073449;28;20040;-83
2022/06/18 10:32:41;;;;;;;25.58;24.08;;;;;;;27.54;99.85;101407.66;5079035;28;20432;-82
2022/06/18 10:35:23;;;;;;;27.77;25.77;;;;;;;27.05;96.07;101414.53;5071165;28;20158;-81
2022/06/18 10:41:31;;;;;;;27.23;25.52;;;;;;;27.82;96.58;101403.81;5014028;28;20411;-81
2022/06/18 10:44:20;;;;;;;29.85;27.95;;;;;;;27.52;91.40;101405.22;4958098;28;20047;-84
2022/06/18 10:47:05;;;;;;;27.98;26.13;;;;;;;27.47;95.66;101399.84;4952105;29;20058;-82
2022/06/18 10:49:53;;;;;;;;;;;;;;;;;;;;;
2022/06/18 10:52:43;;;;;;;;;;;;;;;;;;;;;
2022/06/18 10:58:40;;;;;;;28.17;25.98;;;;;;;27.70;86.99;101398.03;5060952;28;20075;-82
2022/06/18 11:01:44;;;;;;;27.15;25.55;;;;;;;27.81;76.21;101390.47;5065455;28;20142;-82
2022/06/18 11:04:40;;;;;;;25.83;24.10;;;;;;;28.01;73.63;101389.22;5074090;28;20048;-82
2022/06/18 11:07:13;;;;;;;25.42;23.80;;;;;;;28.30;68.55;101388.81;5070912;28;20048;-81
2022/06/18 11:10:42;;;;;;;27.65;25.42;;;;;;;27.73;74.93;101391.16;5072754;28;20465;-81
2022/06/18 11:13:25;;;;;;;28.33;26.23;;;;;;;27.68;82.30;101389.34;5069180;28;20049;-84
2022/06/18 11:16:30;;;;;;;27.25;25.55;;;;;;;27.62;87.34;101385.91;5077693;28;20076;-84
2022/06/18 11:19:48;;;;;;;25.55;23.95;;;;;;;27.97;81.04;101383.56;5076121;28;20051;-80
2022/06/18 11:22:58;;;;;;;25.85;24.35;;;;;;;27.66;66.74;101393.47;5070065;28;20066;-80
2022/06/18 11:25:44;;;;;;;29.63;26.55;;;;;;;27.35;67.51;101378.56;5047941;28;20060;-79
2022/06/18 11:28:16;;;;;;;26.42;24.70;;;;;;;28.78;73.89;101369.09;5065928;28;20479;-81
2022/06/18 11:30:46;;;;;;;25.65;24.05;;;;;;;28.46;67.00;101378.34;5071528;28;20058;-80
2022/06/18 11:33:24;;;;;;;26.70;25.00;;;;;;;28.45;68.67;101369.38;5066026;28;20067;-80
2022/06/18 11:36:41;;;;;;;24.85;23.23;;;;;;;28.53;73.03;101374.09;5065541;28;20045;-81
2022/06/18 11:39:48;;;;;;;25.77;24.10;;;;;;;28.48;78.52;101368.75;5028051;28;20048;-79
2022/06/18 11:42:41;;;;;;;25.48;23.88;;;;;;;27.65;79.55;101370.84;5070448;28;20080;-80
2022/06/18 11:45:24;;;;;;;25.73;24.10;;;;;;;28.04;75.97;101366.75;5064713;28;20040;-80
2022/06/18 11:47:59;;;;;;;24.65;23.08;;;;;;;27.84;70.66;101378.97;5069075;28;20110;-80
2022/06/18 11:50:31;;;;;;;28.73;27.00;;;;;;;28.00;69.51;101366.56;5070934;28;20045;-79
2022/06/18 11:53:06;;;;;;;25.55;24.13;;;;;;;28.63;69.89;101370.28;5067075;28;20091;-80
2022/06/18 11:55:37;;;;;;;26.23;24.80;;;;;;;29.16;76.90;101363.16;5065391;28;20086;-80
2022/06/18 11:58:14;;;;;;;25.30;23.70;;;;;;;28.74;66.47;101365.34;5065789;28;20044;-82
2022/06/18 12:00:51;;;;;;;26.25;24.52;;;;;;;28.50;61.63;101362.94;5067711;28;20044;-82